createdAt,value
2019-03-02T00:00:46.954Z,1015.49
2019-03-02T00:01:48.676Z,1015.52
2019-03-02T00:02:46.915Z,1015.52
2019-03-02T00:03:46.894Z,1015.52
2019-03-02T00:04:49.235Z,1015.57
2019-03-02T00:05:46.853Z,1015.57
2019-03-02T00:06:46.829Z,1015.57
2019-03-02T00:07:47.675Z,1015.57
2019-03-02T00:08:46.786Z,1015.54
2019-03-02T00:09:48.841Z,1015.55
2019-03-02T00:10:46.744Z,1015.53
2019-03-02T00:11:46.718Z,1015.52
2019-03-02T00:12:46.700Z,1015.52
2019-03-02T00:13:46.675Z,1015.54
2019-03-02T00:14:46.654Z,1015.53
2019-03-02T00:15:46.632Z,1015.53
2019-03-02T00:16:46.624Z,1015.52
2019-03-02T00:17:46.593Z,1015.53
2019-03-02T00:18:46.569Z,1015.5
2019-03-02T00:19:46.546Z,1015.47
2019-03-02T00:20:49.870Z,1015.5
2019-03-02T00:21:46.508Z,1015.52
2019-03-02T00:22:46.487Z,1015.52
2019-03-02T00:23:46.461Z,1015.49
2019-03-02T00:24:46.439Z,1015.48
2019-03-02T00:25:46.422Z,1015.52
2019-03-02T00:26:46.935Z,1015.5
2019-03-02T00:27:46.379Z,1015.46
2019-03-02T00:28:46.353Z,1015.47
2019-03-02T00:29:46.806Z,1015.44
2019-03-02T00:30:46.315Z,1015.43
2019-03-02T00:31:46.320Z,1015.39
2019-03-02T00:32:46.268Z,1015.41
2019-03-02T00:33:46.245Z,1015.38
2019-03-02T00:34:46.228Z,1015.43
2019-03-02T00:35:46.207Z,1015.43
2019-03-02T00:36:46.186Z,1015.43
2019-03-02T00:37:46.164Z,1015.45
2019-03-02T00:38:46.139Z,1015.42
2019-03-02T00:39:46.118Z,1015.43
2019-03-02T00:40:46.096Z,1015.49
2019-03-02T00:41:46.079Z,1015.44
2019-03-02T00:42:48.711Z,1015.41
2019-03-02T00:43:46.036Z,1015.37
2019-03-02T00:44:46.010Z,1015.39
2019-03-02T00:45:48.804Z,1015.39
2019-03-02T00:46:45.971Z,1015.37
2019-03-02T00:47:45.951Z,1015.34
2019-03-02T00:48:46.900Z,1015.34
2019-03-02T00:49:45.903Z,1015.3
2019-03-02T00:50:45.888Z,1015.31
2019-03-02T00:51:46.212Z,1015.29
2019-03-02T00:52:45.838Z,1015.31
2019-03-02T00:53:45.817Z,1015.29
2019-03-02T00:54:46.260Z,1015.29
2019-03-02T00:55:45.778Z,1015.27
2019-03-02T00:56:45.756Z,1015.31
2019-03-02T00:57:45.730Z,1015.31
2019-03-02T00:58:45.714Z,1015.27
2019-03-02T00:59:45.688Z,1015.28
2019-03-02T01:00:45.682Z,1015.28
2019-03-02T01:01:45.645Z,1015.27
2019-03-02T01:02:45.723Z,1015.22
2019-03-02T01:03:47.671Z,1015.23
2019-03-02T01:04:45.585Z,1015.23
2019-03-02T01:05:45.564Z,1015.24
2019-03-02T01:06:48.694Z,1015.26
2019-03-02T01:07:45.516Z,1015.23
2019-03-02T01:08:45.499Z,1015.23
2019-03-02T01:09:46.441Z,1015.22
2019-03-02T01:10:45.451Z,1015.23
2019-03-02T01:11:45.430Z,1015.2
2019-03-02T01:12:45.410Z,1015.24
2019-03-02T01:13:45.392Z,1015.21
2019-03-02T01:14:45.366Z,1015.21
2019-03-02T01:15:45.353Z,1015.24
2019-03-02T01:16:45.328Z,1015.16
2019-03-02T01:17:45.306Z,1015.15
2019-03-02T01:18:45.285Z,1015.13
2019-03-02T01:19:45.264Z,1015.17
2019-03-02T01:20:45.238Z,1015.14
2019-03-02T01:21:45.215Z,1015.16
2019-03-02T01:22:48.234Z,1015.14
2019-03-02T01:23:45.178Z,1015.13
2019-03-02T01:24:45.152Z,1015.11
2019-03-02T01:25:45.421Z,1015.09
2019-03-02T01:26:45.113Z,1015.07
2019-03-02T01:27:45.092Z,1015.07
2019-03-02T01:28:45.379Z,1015.02
2019-03-02T01:29:45.044Z,1014.99
2019-03-02T01:30:45.028Z,1015.01
2019-03-02T01:31:45.002Z,1015
2019-03-02T01:32:44.984Z,1014.95
2019-03-02T01:33:44.958Z,1014.97
2019-03-02T01:34:44.937Z,1015
2019-03-02T01:35:44.915Z,1014.93
2019-03-02T01:36:44.959Z,1014.92
2019-03-02T01:37:45.321Z,1014.89
2019-03-02T01:38:44.851Z,1014.92
2019-03-02T01:39:44.830Z,1014.86
2019-03-02T01:40:44.812Z,1014.84
2019-03-02T01:41:44.791Z,1014.87
2019-03-02T01:42:44.765Z,1014.85
2019-03-02T01:43:44.743Z,1014.83
2019-03-02T01:44:44.722Z,1014.84
2019-03-02T01:45:44.704Z,1014.84
2019-03-02T01:46:44.678Z,1014.83
2019-03-02T01:47:50.430Z,1014.82
2019-03-02T01:48:44.636Z,1014.82
2019-03-02T01:49:44.619Z,1014.8
2019-03-02T01:50:47.667Z,1014.82
2019-03-02T01:51:44.576Z,1014.82
2019-03-02T01:52:44.550Z,1014.8
2019-03-02T01:53:45.556Z,1014.8
2019-03-02T01:54:44.511Z,1014.76
2019-03-02T01:55:44.492Z,1014.75
2019-03-02T01:56:44.464Z,1014.7
2019-03-02T01:57:44.442Z,1014.7
2019-03-02T01:58:44.425Z,1014.69
2019-03-02T01:59:44.404Z,1014.61
2019-03-02T02:00:45.654Z,1014.57
2019-03-02T02:01:44.356Z,1014.58
2019-03-02T02:02:44.339Z,1014.61
2019-03-02T02:03:46.968Z,1014.53
2019-03-02T02:04:44.296Z,1014.54
2019-03-02T02:05:44.270Z,1014.54
2019-03-02T02:06:44.249Z,1014.54
2019-03-02T02:07:44.226Z,1014.56
2019-03-02T02:08:44.209Z,1014.55
2019-03-02T02:09:44.188Z,1014.53
2019-03-02T02:10:44.316Z,1014.53
2019-03-02T02:11:44.152Z,1014.53
2019-03-02T02:12:44.123Z,1014.49
2019-03-02T02:13:44.102Z,1014.49
2019-03-02T02:14:44.077Z,1014.5
2019-03-02T02:15:44.055Z,1014.5
2019-03-02T02:16:44.034Z,1014.47
2019-03-02T02:17:44.013Z,1014.47
2019-03-02T02:18:43.999Z,1014.46
2019-03-02T02:19:43.969Z,1014.44
2019-03-02T02:20:46.791Z,1014.51
2019-03-02T02:21:43.927Z,1014.49
2019-03-02T02:22:43.907Z,1014.49
2019-03-02T02:23:45.695Z,1014.44
2019-03-02T02:24:43.866Z,1014.44
2019-03-02T02:25:43.849Z,1014.45
2019-03-02T02:26:46.626Z,1014.38
2019-03-02T02:27:43.797Z,1014.39
2019-03-02T02:28:43.780Z,1014.39
2019-03-02T02:29:44.390Z,1014.39
2019-03-02T02:30:43.732Z,1014.41
2019-03-02T02:31:44.965Z,1014.4
2019-03-02T02:32:43.691Z,1014.34
2019-03-02T02:33:44.604Z,1014.38
2019-03-02T02:34:43.654Z,1014.34
2019-03-02T02:35:43.632Z,1014.31
2019-03-02T02:36:43.605Z,1014.31
2019-03-02T02:37:43.592Z,1014.27
2019-03-02T02:38:43.565Z,1014.26
2019-03-02T02:39:43.544Z,1014.28
2019-03-02T02:40:43.517Z,1014.21
2019-03-02T02:41:43.496Z,1014.23
2019-03-02T02:42:44.869Z,1014.2
2019-03-02T02:43:43.458Z,1014.24
2019-03-02T02:44:43.434Z,1014.24
2019-03-02T02:45:43.412Z,1014.18
2019-03-02T02:46:43.392Z,1014.25
2019-03-02T02:47:50.159Z,1014.21
2019-03-02T02:48:43.351Z,1014.21
2019-03-02T02:49:48.443Z,1014.22
2019-03-02T02:50:43.309Z,1014.21
2019-03-02T02:51:44.289Z,1014.19
2019-03-02T02:52:43.270Z,1014.24
2019-03-02T02:53:44.998Z,1014.18
2019-03-02T02:54:43.219Z,1014.2
2019-03-02T02:55:43.197Z,1014.18
2019-03-02T02:56:43.179Z,1014.12
2019-03-02T02:57:43.160Z,1014.06
2019-03-02T02:58:43.134Z,1014.08
2019-03-02T02:59:43.138Z,1014.06
2019-03-02T03:00:43.094Z,1014.1
2019-03-02T03:01:43.076Z,1014.1
2019-03-02T03:02:43.046Z,1014.07
2019-03-02T03:03:43.025Z,1014.06
2019-03-02T03:04:43.001Z,1014.06
2019-03-02T03:05:42.988Z,1014.06
2019-03-02T03:06:42.965Z,1014.07
2019-03-02T03:07:51.655Z,1014.05
2019-03-02T03:08:42.921Z,1014.08
2019-03-02T03:09:45.247Z,1014.05
2019-03-02T03:10:42.894Z,1014.02
2019-03-02T03:11:44.325Z,1014.01
2019-03-02T03:12:42.830Z,1013.99
2019-03-02T03:13:42.809Z,1014
2019-03-02T03:14:42.792Z,1013.96
2019-03-02T03:15:42.770Z,1013.97
2019-03-02T03:16:42.746Z,1013.9
2019-03-02T03:17:42.723Z,1013.89
2019-03-02T03:18:46.871Z,1013.89
2019-03-02T03:19:42.683Z,1013.92
2019-03-02T03:20:47.525Z,1013.94
2019-03-02T03:21:42.638Z,1013.85
2019-03-02T03:22:45.961Z,1013.9
2019-03-02T03:23:42.598Z,1013.89
2019-03-02T03:24:42.578Z,1013.84
2019-03-02T03:25:42.556Z,1013.86
2019-03-02T03:26:42.532Z,1013.84
2019-03-02T03:27:47.389Z,1013.81
2019-03-02T03:28:42.490Z,1013.82
2019-03-02T03:29:44.370Z,1013.82
2019-03-02T03:30:42.445Z,1013.86
2019-03-02T03:31:42.426Z,1013.81
2019-03-02T03:32:54.126Z,1013.85
2019-03-02T03:33:46.563Z,1013.84
2019-03-02T03:34:42.378Z,1013.86
2019-03-02T03:35:42.336Z,1013.91
2019-03-02T03:36:42.312Z,1013.85
2019-03-02T03:37:50.413Z,1013.85
2019-03-02T03:38:42.269Z,1013.83
2019-03-02T03:39:46.250Z,1013.82
2019-03-02T03:40:42.317Z,1013.83
2019-03-02T03:41:43.380Z,1013.78
2019-03-02T03:42:42.188Z,1013.81
2019-03-02T03:43:44.196Z,1013.8
2019-03-02T03:44:42.145Z,1013.71
2019-03-02T03:45:43.127Z,1013.68
2019-03-02T03:46:42.104Z,1013.75
2019-03-02T03:47:42.080Z,1013.61
2019-03-02T03:48:42.065Z,1013.7
2019-03-02T03:49:42.034Z,1013.66
2019-03-02T03:50:42.023Z,1013.65
2019-03-02T03:51:41.996Z,1013.7
2019-03-02T03:52:43.942Z,1013.73
2019-03-02T03:53:41.948Z,1013.68
2019-03-02T03:54:45.366Z,1013.7
2019-03-02T03:55:41.905Z,1013.75
2019-03-02T03:56:42.435Z,1013.71
2019-03-02T03:57:41.875Z,1013.73
2019-03-02T03:58:41.847Z,1013.68
2019-03-02T03:59:41.819Z,1013.7
2019-03-02T04:00:41.802Z,1013.7
2019-03-02T04:01:41.783Z,1013.75
2019-03-02T04:02:41.756Z,1013.73
2019-03-02T04:03:41.737Z,1013.66
2019-03-02T04:04:41.715Z,1013.66
2019-03-02T04:05:42.027Z,1013.66
2019-03-02T04:06:41.668Z,1013.7
2019-03-02T04:07:48.128Z,1013.72
2019-03-02T04:08:41.626Z,1013.66
2019-03-02T04:09:42.785Z,1013.66
2019-03-02T04:10:41.585Z,1013.72
2019-03-02T04:11:41.990Z,1013.7
2019-03-02T04:12:41.541Z,1013.72
2019-03-02T04:13:44.696Z,1013.69
2019-03-02T04:14:41.499Z,1013.68
2019-03-02T04:15:43.441Z,1013.68
2019-03-02T04:16:41.451Z,1013.65
2019-03-02T04:17:41.434Z,1013.62
2019-03-02T04:18:41.414Z,1013.64
2019-03-02T04:19:41.394Z,1013.64
2019-03-02T04:20:45.590Z,1013.63
2019-03-02T04:21:41.354Z,1013.6
2019-03-02T04:22:44.585Z,1013.63
2019-03-02T04:23:41.307Z,1013.61
2019-03-02T04:24:41.289Z,1013.66
2019-03-02T04:25:41.260Z,1013.64
2019-03-02T04:26:41.243Z,1013.64
2019-03-02T04:27:41.219Z,1013.6
2019-03-02T04:28:41.216Z,1013.65
2019-03-02T04:29:48.773Z,1013.58
2019-03-02T04:30:41.152Z,1013.61
2019-03-02T04:31:43.838Z,1013.56
2019-03-02T04:32:41.115Z,1013.58
2019-03-02T04:33:43.161Z,1013.53
2019-03-02T04:34:41.066Z,1013.6
2019-03-02T04:35:41.042Z,1013.55
2019-03-02T04:36:43.048Z,1013.57
2019-03-02T04:37:41.005Z,1013.61
2019-03-02T04:38:40.981Z,1013.54
2019-03-02T04:39:40.957Z,1013.58
2019-03-02T04:40:40.936Z,1013.62
2019-03-02T04:41:40.918Z,1013.56
2019-03-02T04:42:40.894Z,1013.57
2019-03-02T04:43:40.875Z,1013.54
2019-03-02T04:44:40.849Z,1013.55
2019-03-02T04:45:40.858Z,1013.47
2019-03-02T04:46:40.811Z,1013.5
2019-03-02T04:47:40.790Z,1013.49
2019-03-02T04:48:40.764Z,1013.47
2019-03-02T04:49:40.769Z,1013.46
2019-03-02T04:50:40.725Z,1013.43
2019-03-02T04:51:40.702Z,1013.46
2019-03-02T04:52:40.676Z,1013.46
2019-03-02T04:53:40.656Z,1013.43
2019-03-02T04:54:40.637Z,1013.42
2019-03-02T04:55:40.616Z,1013.4
2019-03-02T04:56:40.596Z,1013.41
2019-03-02T04:57:40.569Z,1013.38
2019-03-02T04:58:43.582Z,1013.37
2019-03-02T04:59:40.526Z,1013.34
2019-03-02T05:00:40.508Z,1013.34
2019-03-02T05:01:43.109Z,1013.36
2019-03-02T05:02:40.461Z,1013.35
2019-03-02T05:03:40.439Z,1013.38
2019-03-02T05:04:40.421Z,1013.31
2019-03-02T05:05:40.562Z,1013.36
2019-03-02T05:06:40.375Z,1013.38
2019-03-02T05:07:40.352Z,1013.37
2019-03-02T05:08:41.080Z,1013.41
2019-03-02T05:09:40.313Z,1013.3
2019-03-02T05:10:40.290Z,1013.32
2019-03-02T05:11:40.735Z,1013.36
2019-03-02T05:12:40.248Z,1013.29
2019-03-02T05:13:40.228Z,1013.32
2019-03-02T05:14:40.946Z,1013.29
2019-03-02T05:15:40.184Z,1013.31
2019-03-02T05:16:40.158Z,1013.29
2019-03-02T05:17:42.846Z,1013.31
2019-03-02T05:18:40.119Z,1013.27
2019-03-02T05:19:40.099Z,1013.28
2019-03-02T05:20:41.001Z,1013.27
2019-03-02T05:21:43.443Z,1013.28
2019-03-02T05:22:40.034Z,1013.27
2019-03-02T05:23:40.012Z,1013.24
2019-03-02T05:24:40.450Z,1013.21
2019-03-02T05:25:39.965Z,1013.19
2019-03-02T05:26:39.950Z,1013.19
2019-03-02T05:27:39.930Z,1013.26
2019-03-02T05:28:42.951Z,1013.25
2019-03-02T05:29:39.877Z,1013.21
2019-03-02T05:30:39.860Z,1013.19
2019-03-02T05:31:40.862Z,1013.21
2019-03-02T05:32:39.817Z,1013.13
2019-03-02T05:33:39.792Z,1013.15
2019-03-02T05:34:40.597Z,1013.16
2019-03-02T05:35:39.749Z,1013.18
2019-03-02T05:36:39.735Z,1013.12
2019-03-02T05:37:40.685Z,1013.09
2019-03-02T05:38:39.685Z,1013.13
2019-03-02T05:39:39.662Z,1013.1
2019-03-02T05:40:39.645Z,1013.12
2019-03-02T05:41:40.021Z,1013.12
2019-03-02T05:42:39.601Z,1013.14
2019-03-02T05:43:39.580Z,1013.13
2019-03-02T05:44:39.558Z,1013.17
2019-03-02T05:45:39.534Z,1013.11
2019-03-02T05:46:39.514Z,1013.1
2019-03-02T05:47:39.490Z,1013.13
2019-03-02T05:48:42.795Z,1013.11
2019-03-02T05:49:39.446Z,1013.09
2019-03-02T05:50:39.425Z,1013.11
2019-03-02T05:51:42.629Z,1013.08
2019-03-02T05:52:39.385Z,1013.07
2019-03-02T05:53:39.364Z,1013.08
2019-03-02T05:54:41.502Z,1013.12
2019-03-02T05:55:39.316Z,1013.08
2019-03-02T05:56:39.299Z,1013.12
2019-03-02T05:57:40.410Z,1013.14
2019-03-02T05:58:39.255Z,1013.07
2019-03-02T05:59:39.231Z,1013.09
2019-03-02T06:00:39.213Z,1013.11
2019-03-02T06:01:40.287Z,1013.11
2019-03-02T06:02:39.166Z,1013.12
2019-03-02T06:03:39.149Z,1013.15
2019-03-02T06:04:39.123Z,1013.11
2019-03-02T06:05:39.106Z,1013.12
2019-03-02T06:06:39.084Z,1013.12
2019-03-02T06:07:39.062Z,1013.15
2019-03-02T06:08:39.037Z,1013.1
2019-03-02T06:09:39.015Z,1013.16
2019-03-02T06:10:39.004Z,1013.22
2019-03-02T06:11:40.357Z,1013.14
2019-03-02T06:12:38.952Z,1013.15
2019-03-02T06:13:38.929Z,1013.17
2019-03-02T06:14:38.911Z,1013.14
2019-03-02T06:15:39.658Z,1013.14
2019-03-02T06:16:38.869Z,1013.18
2019-03-02T06:17:38.853Z,1013.15
2019-03-02T06:18:38.825Z,1013.17
2019-03-02T06:19:38.799Z,1013.12
2019-03-02T06:20:38.781Z,1013.14
2019-03-02T06:21:38.755Z,1013.15
2019-03-02T06:22:38.734Z,1013.16
2019-03-02T06:23:38.715Z,1013.15
2019-03-02T06:24:41.017Z,1013.15
2019-03-02T06:25:38.674Z,1013.15
2019-03-02T06:26:38.648Z,1013.14
2019-03-02T06:27:38.626Z,1013.1
2019-03-02T06:28:38.609Z,1013.08
2019-03-02T06:29:38.587Z,1013.09
2019-03-02T06:30:40.564Z,1013.1
2019-03-02T06:31:38.540Z,1013.03
2019-03-02T06:32:38.519Z,1013.05
2019-03-02T06:33:40.625Z,1013
2019-03-02T06:34:38.476Z,1012.99
2019-03-02T06:35:38.457Z,1012.97
2019-03-02T06:36:40.853Z,1012.97
2019-03-02T06:37:38.415Z,1012.9
2019-03-02T06:38:38.395Z,1012.88
2019-03-02T06:39:40.925Z,1012.86
2019-03-02T06:40:38.345Z,1012.83
2019-03-02T06:41:38.324Z,1012.77
2019-03-02T06:42:41.788Z,1012.73
2019-03-02T06:43:38.285Z,1012.71
2019-03-02T06:44:38.259Z,1012.74
2019-03-02T06:45:40.503Z,1012.73
2019-03-02T06:46:38.220Z,1012.64
2019-03-02T06:47:38.198Z,1012.63
2019-03-02T06:48:41.476Z,1012.58
2019-03-02T06:49:38.150Z,1012.55
2019-03-02T06:50:38.134Z,1012.56
2019-03-02T06:51:38.107Z,1012.49
2019-03-02T06:52:38.090Z,1012.53
2019-03-02T06:53:38.064Z,1012.46
2019-03-02T06:54:38.042Z,1012.44
2019-03-02T06:55:38.021Z,1012.47
2019-03-02T06:56:39.472Z,1012.46
2019-03-02T06:57:37.982Z,1012.45
2019-03-02T06:58:37.956Z,1012.41
2019-03-02T06:59:39.291Z,1012.45
2019-03-02T07:00:37.918Z,1012.46
2019-03-02T07:01:37.895Z,1012.46
2019-03-02T07:02:37.870Z,1012.48
2019-03-02T07:03:37.848Z,1012.47
2019-03-02T07:04:37.826Z,1012.46
2019-03-02T07:05:37.809Z,1012.45
2019-03-02T07:06:37.783Z,1012.47
2019-03-02T07:07:37.766Z,1012.5
2019-03-02T07:08:37.739Z,1012.49
2019-03-02T07:09:37.723Z,1012.56
2019-03-02T07:10:37.701Z,1012.54
2019-03-02T07:11:37.680Z,1012.59
2019-03-02T07:12:37.654Z,1012.61
2019-03-02T07:13:37.632Z,1012.62
2019-03-02T07:14:37.614Z,1012.67
2019-03-02T07:15:40.409Z,1012.68
2019-03-02T07:16:37.567Z,1012.67
2019-03-02T07:17:37.546Z,1012.68
2019-03-02T07:18:38.782Z,1012.67
2019-03-02T07:19:37.505Z,1012.64
2019-03-02T07:20:37.487Z,1012.7
2019-03-02T07:21:37.614Z,1012.64
2019-03-02T07:22:37.442Z,1012.65
2019-03-02T07:23:37.416Z,1012.68
2019-03-02T07:24:38.907Z,1012.7
2019-03-02T07:25:40.428Z,1012.74
2019-03-02T07:26:37.351Z,1012.71
2019-03-02T07:27:37.329Z,1012.69
2019-03-02T07:28:38.714Z,1012.72
2019-03-02T07:29:37.293Z,1012.74
2019-03-02T07:30:37.274Z,1012.71
2019-03-02T07:31:37.243Z,1012.67
2019-03-02T07:32:37.225Z,1012.65
2019-03-02T07:33:37.223Z,1012.63
2019-03-02T07:34:37.178Z,1012.71
2019-03-02T07:35:37.156Z,1012.66
2019-03-02T07:36:37.136Z,1012.68
2019-03-02T07:37:37.118Z,1012.65
2019-03-02T07:38:37.091Z,1012.61
2019-03-02T07:39:37.075Z,1012.66
2019-03-02T07:40:37.049Z,1012.68
2019-03-02T07:41:37.032Z,1012.68
2019-03-02T07:42:37.010Z,1012.65
2019-03-02T07:43:36.991Z,1012.64
2019-03-02T07:44:36.962Z,1012.66
2019-03-02T07:45:36.940Z,1012.66
2019-03-02T07:46:36.926Z,1012.65
2019-03-02T07:47:36.901Z,1012.62
2019-03-02T07:48:37.601Z,1012.65
2019-03-02T07:49:36.853Z,1012.64
2019-03-02T07:50:36.838Z,1012.66
2019-03-02T07:51:37.822Z,1012.72
2019-03-02T07:52:36.793Z,1012.67
2019-03-02T07:53:36.768Z,1012.66
2019-03-02T07:54:38.753Z,1012.71
2019-03-02T07:55:36.725Z,1012.65
2019-03-02T07:56:36.706Z,1012.64
2019-03-02T07:57:36.680Z,1012.58
2019-03-02T07:58:36.659Z,1012.61
2019-03-02T07:59:36.638Z,1012.64
2019-03-02T08:00:37.805Z,1012.59
2019-03-02T08:01:36.599Z,1012.57
2019-03-02T08:02:36.575Z,1012.61
2019-03-02T08:03:36.549Z,1012.63
2019-03-02T08:04:38.442Z,1012.67
2019-03-02T08:05:36.513Z,1012.63
2019-03-02T08:06:36.489Z,1012.69
2019-03-02T08:07:38.000Z,1012.71
2019-03-02T08:08:36.442Z,1012.7
2019-03-02T08:09:36.425Z,1012.75
2019-03-02T08:10:38.580Z,1012.72
2019-03-02T08:11:36.381Z,1012.66
2019-03-02T08:12:36.359Z,1012.69
2019-03-02T08:13:37.560Z,1012.7
2019-03-02T08:14:36.318Z,1012.74
2019-03-02T08:15:36.295Z,1012.64
2019-03-02T08:16:37.695Z,1012.67
2019-03-02T08:17:36.246Z,1012.62
2019-03-02T08:18:36.229Z,1012.61
2019-03-02T08:19:36.208Z,1012.61
2019-03-02T08:20:36.182Z,1012.62
2019-03-02T08:21:36.882Z,1012.6
2019-03-02T08:22:36.142Z,1012.62
2019-03-02T08:23:36.121Z,1012.57
2019-03-02T08:24:36.098Z,1012.6
2019-03-02T08:25:36.073Z,1012.64
2019-03-02T08:26:36.057Z,1012.59
2019-03-02T08:27:36.030Z,1012.57
2019-03-02T08:28:36.014Z,1012.6
2019-03-02T08:29:36.001Z,1012.59
2019-03-02T08:30:35.965Z,1012.62
2019-03-02T08:31:35.942Z,1012.64
2019-03-02T08:32:35.924Z,1012.61
2019-03-02T08:33:45.405Z,1012.64
2019-03-02T08:34:35.877Z,1012.61
2019-03-02T08:35:35.858Z,1012.59
2019-03-02T08:36:35.839Z,1012.64
2019-03-02T08:37:35.817Z,1012.62
2019-03-02T08:38:36.493Z,1012.56
2019-03-02T08:39:35.768Z,1012.59
2019-03-02T08:40:35.747Z,1012.59
2019-03-02T08:41:36.609Z,1012.6
2019-03-02T08:42:35.704Z,1012.54
2019-03-02T08:43:37.739Z,1012.57
2019-03-02T08:44:35.660Z,1012.53
2019-03-02T08:45:35.644Z,1012.56
2019-03-02T08:46:35.667Z,1012.53
2019-03-02T08:47:35.599Z,1012.55
2019-03-02T08:48:35.670Z,1012.56
2019-03-02T08:49:38.389Z,1012.54
2019-03-02T08:50:35.533Z,1012.53
2019-03-02T08:51:35.512Z,1012.55
2019-03-02T08:52:35.486Z,1012.54
2019-03-02T08:53:35.465Z,1012.52
2019-03-02T08:54:35.448Z,1012.51
2019-03-02T08:55:35.434Z,1012.5
2019-03-02T08:56:35.446Z,1012.58
2019-03-02T08:57:35.377Z,1012.54
2019-03-02T08:58:35.388Z,1012.58
2019-03-02T08:59:38.042Z,1012.58
2019-03-02T09:00:35.316Z,1012.58
2019-03-02T09:01:37.080Z,1012.57
2019-03-02T09:02:35.269Z,1012.55
2019-03-02T09:03:37.145Z,1012.57
2019-03-02T09:04:35.229Z,1012.53
2019-03-02T09:05:51.905Z,1012.51
2019-03-02T09:06:36.078Z,1012.51
2019-03-02T09:07:35.658Z,1012.47
2019-03-02T09:08:35.140Z,1012.43
2019-03-02T09:09:35.117Z,1012.43
2019-03-02T09:10:36.980Z,1012.42
2019-03-02T09:11:35.080Z,1012.35
2019-03-02T09:12:35.056Z,1012.3
2019-03-02T09:13:35.887Z,1012.24
2019-03-02T09:14:35.013Z,1012.21
2019-03-02T09:15:34.986Z,1012.16
2019-03-02T09:16:34.969Z,1012.11
2019-03-02T09:17:34.943Z,1012.17
2019-03-02T09:18:44.153Z,1012.23
2019-03-02T09:19:34.900Z,1012.22
2019-03-02T09:20:35.678Z,1012.29
2019-03-02T09:21:34.861Z,1012.33
2019-03-02T09:22:34.836Z,1012.34
2019-03-02T09:23:36.111Z,1012.29
2019-03-02T09:24:34.795Z,1012.26
2019-03-02T09:25:35.287Z,1012.23
2019-03-02T09:26:34.748Z,1012.2
2019-03-02T09:27:34.726Z,1012.3
2019-03-02T09:28:34.704Z,1012.34
2019-03-02T09:29:34.687Z,1012.36
2019-03-02T09:30:34.660Z,1012.32
2019-03-02T09:31:34.991Z,1012.31
2019-03-02T09:32:34.622Z,1012.33
2019-03-02T09:33:34.601Z,1012.3
2019-03-02T09:34:36.943Z,1012.31
2019-03-02T09:35:34.558Z,1012.36
2019-03-02T09:36:34.531Z,1012.37
2019-03-02T09:37:34.509Z,1012.44
2019-03-02T09:38:34.491Z,1012.5
2019-03-02T09:39:37.183Z,1012.5
2019-03-02T09:40:34.444Z,1012.48
2019-03-02T09:41:34.422Z,1012.46
2019-03-02T09:42:39.669Z,1012.47
2019-03-02T09:43:34.386Z,1012.43
2019-03-02T09:44:36.225Z,1012.41
2019-03-02T09:45:34.334Z,1012.46
2019-03-02T09:46:34.318Z,1012.47
2019-03-02T09:47:34.391Z,1012.42
2019-03-02T09:48:35.091Z,1012.44
2019-03-02T09:49:37.321Z,1012.4
2019-03-02T09:50:34.227Z,1012.41
2019-03-02T09:51:34.205Z,1012.46
2019-03-02T09:52:34.187Z,1012.45
2019-03-02T09:53:34.167Z,1012.45
2019-03-02T09:54:34.147Z,1012.41
2019-03-02T09:55:34.121Z,1012.39
2019-03-02T09:56:34.100Z,1012.42
2019-03-02T09:57:34.078Z,1012.38
2019-03-02T09:58:34.053Z,1012.37
2019-03-02T09:59:34.032Z,1012.4
2019-03-02T10:00:35.916Z,1012.37
2019-03-02T10:01:35.678Z,1012.34
2019-03-02T10:02:33.966Z,1012.36
2019-03-02T10:03:33.948Z,1012.32
2019-03-02T10:04:35.785Z,1012.32
2019-03-02T10:05:33.905Z,1012.35
2019-03-02T10:06:33.883Z,1012.31
2019-03-02T10:07:34.466Z,1012.3
2019-03-02T10:08:33.835Z,1012.29
2019-03-02T10:09:33.816Z,1012.27
2019-03-02T10:10:33.797Z,1012.27
2019-03-02T10:11:33.775Z,1012.3
2019-03-02T10:12:33.755Z,1012.22
2019-03-02T10:13:33.727Z,1012.26
2019-03-02T10:14:35.062Z,1012.3
2019-03-02T10:15:33.688Z,1012.3
2019-03-02T10:16:33.666Z,1012.29
2019-03-02T10:17:34.815Z,1012.29
2019-03-02T10:18:33.622Z,1012.27
2019-03-02T10:19:33.597Z,1012.28
2019-03-02T10:20:33.579Z,1012.28
2019-03-02T10:21:33.554Z,1012.27
2019-03-02T10:22:35.240Z,1012.29
2019-03-02T10:23:33.510Z,1012.24
2019-03-02T10:24:33.493Z,1012.34
2019-03-02T10:25:33.483Z,1012.32
2019-03-02T10:26:33.447Z,1012.32
2019-03-02T10:27:33.424Z,1012.3
2019-03-02T10:28:33.977Z,1012.33
2019-03-02T10:29:33.384Z,1012.33
2019-03-02T10:30:33.358Z,1012.33
2019-03-02T10:31:33.337Z,1012.29
2019-03-02T10:32:33.315Z,1012.28
2019-03-02T10:33:33.309Z,1012.25
2019-03-02T10:34:33.271Z,1012.25
2019-03-02T10:35:33.254Z,1012.22
2019-03-02T10:36:33.227Z,1012.18
2019-03-02T10:37:33.216Z,1012.21
2019-03-02T10:38:33.189Z,1012.19
2019-03-02T10:39:33.653Z,1012.21
2019-03-02T10:40:33.141Z,1012.19
2019-03-02T10:41:33.121Z,1012.18
2019-03-02T10:42:35.834Z,1012.18
2019-03-02T10:43:33.081Z,1012.17
2019-03-02T10:44:33.056Z,1012.14
2019-03-02T10:45:33.746Z,1012.14
2019-03-02T10:46:33.017Z,1012.05
2019-03-02T10:47:32.994Z,1012.07
2019-03-02T10:48:32.973Z,1012.02
2019-03-02T10:49:32.951Z,1012.03
2019-03-02T10:50:32.926Z,1011.99
2019-03-02T10:51:33.874Z,1012.03
2019-03-02T10:52:32.882Z,1011.95
2019-03-02T10:53:32.866Z,1011.99
2019-03-02T10:54:34.822Z,1011.96
2019-03-02T10:55:32.821Z,1012
2019-03-02T10:56:32.797Z,1011.96
2019-03-02T10:57:32.775Z,1011.94
2019-03-02T10:58:34.619Z,1011.97
2019-03-02T10:59:32.735Z,1011.95
2019-03-02T11:00:32.709Z,1011.93
2019-03-02T11:01:32.688Z,1011.91
2019-03-02T11:02:32.685Z,1011.94
2019-03-02T11:03:32.980Z,1011.94
2019-03-02T11:04:32.627Z,1011.96
2019-03-02T11:05:32.601Z,1011.91
2019-03-02T11:06:33.025Z,1011.9
2019-03-02T11:07:32.558Z,1011.89
2019-03-02T11:08:32.541Z,1011.85
2019-03-02T11:09:32.830Z,1011.79
2019-03-02T11:10:32.493Z,1011.8
2019-03-02T11:11:33.612Z,1011.77
2019-03-02T11:12:32.457Z,1011.69
2019-03-02T11:13:32.436Z,1011.65
2019-03-02T11:14:32.406Z,1011.67
2019-03-02T11:15:32.385Z,1011.61
2019-03-02T11:16:32.366Z,1011.61
2019-03-02T11:17:32.344Z,1011.59
2019-03-02T11:18:34.511Z,1011.52
2019-03-02T11:19:32.299Z,1011.49
2019-03-02T11:20:32.276Z,1011.5
2019-03-02T11:21:34.603Z,1011.52
2019-03-02T11:22:38.468Z,1011.5
2019-03-02T11:23:32.217Z,1011.5
2019-03-02T11:24:32.191Z,1011.48
2019-03-02T11:25:32.173Z,1011.43
2019-03-02T11:26:32.153Z,1011.43
2019-03-02T11:27:32.129Z,1011.39
2019-03-02T11:28:32.106Z,1011.39
2019-03-02T11:29:32.083Z,1011.35
2019-03-02T11:30:32.066Z,1011.4
2019-03-02T11:31:32.043Z,1011.33
2019-03-02T11:32:32.018Z,1011.35
2019-03-02T11:33:32.216Z,1011.37
2019-03-02T11:34:33.781Z,1011.31
2019-03-02T11:35:31.958Z,1011.31
2019-03-02T11:36:31.947Z,1011.31
2019-03-02T11:37:31.912Z,1011.25
2019-03-02T11:38:33.424Z,1011.23
2019-03-02T11:39:31.868Z,1011.24
2019-03-02T11:40:33.021Z,1011.18
2019-03-02T11:41:31.824Z,1011.25
2019-03-02T11:42:31.808Z,1011.22
2019-03-02T11:43:31.781Z,1011.19
2019-03-02T11:44:31.764Z,1011.18
2019-03-02T11:45:31.743Z,1011.11
2019-03-02T11:46:31.716Z,1011.13
2019-03-02T11:47:32.943Z,1011.11
2019-03-02T11:48:31.679Z,1011.17
2019-03-02T11:49:34.740Z,1011.07
2019-03-02T11:50:31.630Z,1011.11
2019-03-02T11:51:31.609Z,1011.13
2019-03-02T11:52:34.929Z,1011.1
2019-03-02T11:53:31.571Z,1011.08
2019-03-02T11:54:31.547Z,1011.07
2019-03-02T11:55:31.528Z,1011.04
2019-03-02T11:56:31.502Z,1011.01
2019-03-02T11:57:31.484Z,1011.09
2019-03-02T11:58:33.447Z,1011.02
2019-03-02T11:59:31.443Z,1011.05
2019-03-02T12:00:37.614Z,1011
2019-03-02T12:01:34.089Z,1011.02
2019-03-02T12:02:31.377Z,1011
2019-03-02T12:03:31.356Z,1010.99
2019-03-02T12:04:31.329Z,1010.95
2019-03-02T12:05:31.308Z,1010.96
2019-03-02T12:06:31.291Z,1010.93
2019-03-02T12:07:31.271Z,1010.92
2019-03-02T12:08:31.248Z,1010.94